createdAt,value
2023-05-16T00:00:39.341Z,13.81
2023-05-16T00:03:07.793Z,14.39
2023-05-16T00:05:36.184Z,14.37
2023-05-16T00:08:04.043Z,14.41
2023-05-16T00:10:33.428Z,14.39
2023-05-16T00:13:02.077Z,14.29
2023-05-16T00:15:30.828Z,14.23
2023-05-16T00:17:59.738Z,14.23
2023-05-16T00:20:28.740Z,14.31
2023-05-16T00:23:01.234Z,14.08
2023-05-16T00:25:29.710Z,14.31
2023-05-16T00:28:00.520Z,14.27
2023-05-16T00:30:28.809Z,14.22
2023-05-16T00:32:57.113Z,14.20
2023-05-16T00:35:25.151Z,14.11
2023-05-16T00:37:53.165Z,14.15
2023-05-16T00:40:21.713Z,14.15
2023-05-16T00:42:49.767Z,14.14
2023-05-16T00:45:19.189Z,14.10
2023-05-16T00:47:47.096Z,14.07
2023-05-16T00:50:15.152Z,14.01
2023-05-16T00:52:43.807Z,13.97
2023-05-16T00:55:11.910Z,14.05
2023-05-16T00:57:40.691Z,14.04
2023-05-16T01:00:10.823Z,14.03
2023-05-16T01:02:40.282Z,14.06
2023-05-16T01:05:09.458Z,14.06
2023-05-16T01:07:37.564Z,14.02
2023-05-16T01:10:07.999Z,14.01
2023-05-16T01:12:43.042Z,13.72
2023-05-16T01:15:14.450Z,14.00
2023-05-16T01:17:54.868Z,13.97
2023-05-16T01:20:33.621Z,13.96
2023-05-16T01:23:15.172Z,13.87
2023-05-16T01:25:57.730Z,13.93
2023-05-16T01:28:28.562Z,13.92
2023-05-16T01:30:56.529Z,13.76
2023-05-16T01:33:24.629Z,13.69
2023-05-16T01:36:00.764Z,13.72
2023-05-16T01:38:34.848Z,13.83
2023-05-16T01:41:09.817Z,13.82
2023-05-16T01:43:45.429Z,13.82
2023-05-16T01:46:16.855Z,13.81
2023-05-16T01:48:52.612Z,13.84
2023-05-16T01:51:23.955Z,13.86
2023-05-16T01:53:53.668Z,13.68
2023-05-16T01:56:23.015Z,13.75
2023-05-16T01:58:54.227Z,13.91
2023-05-16T02:01:22.244Z,13.92
2023-05-16T02:03:51.205Z,13.89
2023-05-16T02:06:19.272Z,13.86
2023-05-16T02:08:47.201Z,13.82
2023-05-16T02:11:15.153Z,13.78
2023-05-16T02:13:43.145Z,13.78
2023-05-16T02:16:13.468Z,13.57
2023-05-16T02:18:41.555Z,13.69
2023-05-16T02:21:09.717Z,13.73
2023-05-16T02:23:37.643Z,13.75
2023-05-16T02:26:05.766Z,13.41
2023-05-16T02:28:33.858Z,13.74
2023-05-16T02:31:02.475Z,13.75
2023-05-16T02:33:31.875Z,13.74
2023-05-16T02:35:59.851Z,13.64
2023-05-16T02:38:27.830Z,13.43
2023-05-16T02:40:56.326Z,13.76
2023-05-16T02:43:24.269Z,13.80
2023-05-16T02:45:53.214Z,13.83
2023-05-16T02:48:21.344Z,13.86
2023-05-16T02:50:50.830Z,13.84
2023-05-16T02:53:18.760Z,13.94
2023-05-16T02:55:47.115Z,13.96
2023-05-16T02:58:15.254Z,13.88
2023-05-16T03:00:43.231Z,13.94
2023-05-16T03:03:11.292Z,13.95
2023-05-16T03:05:39.383Z,13.94
2023-05-16T03:08:08.767Z,14.04
2023-05-16T03:10:36.755Z,14.08
2023-05-16T03:13:04.753Z,14.07
2023-05-16T03:15:51.317Z,13.96
2023-05-16T03:18:19.267Z,13.97
2023-05-16T03:20:47.386Z,13.98
2023-05-16T03:23:16.746Z,13.97
2023-05-16T03:25:46.339Z,14.00
2023-05-16T03:28:15.467Z,14.00
2023-05-16T03:30:43.657Z,14.02
2023-05-16T03:33:12.566Z,14.00
2023-05-16T03:35:41.104Z,14.01
2023-05-16T03:38:09.318Z,13.96
2023-05-16T03:40:39.222Z,14.03
2023-05-16T03:43:07.213Z,14.09
2023-05-16T03:45:35.378Z,14.08
2023-05-16T03:48:03.363Z,14.12
2023-05-16T03:50:31.342Z,14.10
2023-05-16T03:52:59.543Z,14.21
2023-05-16T03:55:27.616Z,14.25
2023-05-16T03:57:56.957Z,14.24
2023-05-16T04:00:24.903Z,14.25
2023-05-16T04:02:53.235Z,14.25
2023-05-16T04:05:21.629Z,14.23
2023-05-16T04:07:49.658Z,14.24
2023-05-16T04:10:17.636Z,14.31
2023-05-16T04:12:46.113Z,14.40
2023-05-16T04:15:15.846Z,14.40
2023-05-16T04:17:43.863Z,14.42
2023-05-16T04:20:12.743Z,14.41
2023-05-16T04:22:40.743Z,14.39
2023-05-16T04:25:09.496Z,14.26
2023-05-16T04:27:37.678Z,14.40
2023-05-16T04:30:06.591Z,14.44
2023-05-16T04:32:37.009Z,14.44
2023-05-16T04:35:05.180Z,14.47
2023-05-16T04:37:33.142Z,14.44
2023-05-16T04:40:01.145Z,14.44
2023-05-16T04:42:29.102Z,14.62
2023-05-16T04:44:57.473Z,14.70
2023-05-16T04:47:27.888Z,14.71
2023-05-16T04:49:57.711Z,14.72
2023-05-16T04:52:25.745Z,14.72
2023-05-16T04:54:53.620Z,14.74
2023-05-16T04:57:21.668Z,14.56
2023-05-16T04:59:49.686Z,14.80
2023-05-16T05:02:17.853Z,14.88
2023-05-16T05:04:45.965Z,14.88
2023-05-16T05:07:16.045Z,14.89
2023-05-16T05:09:44.084Z,14.83
2023-05-16T05:12:12.646Z,14.91
2023-05-16T05:14:40.578Z,14.88
2023-05-16T05:17:08.891Z,14.89
2023-05-16T05:19:37.242Z,14.89
2023-05-16T05:22:05.341Z,14.90
2023-05-16T05:24:34.746Z,14.95
2023-05-16T05:27:03.127Z,14.91
2023-05-16T05:29:31.022Z,14.95
2023-05-16T05:31:59.023Z,15.03
2023-05-16T05:34:27.007Z,15.04
2023-05-16T05:36:55.030Z,15.11
2023-05-16T05:39:24.458Z,15.15
2023-05-16T05:41:53.812Z,15.12
2023-05-16T05:44:21.794Z,15.11
2023-05-16T05:46:49.864Z,15.03
2023-05-16T05:49:18.040Z,15.13
2023-05-16T05:51:46.059Z,15.09
2023-05-16T05:54:14.045Z,15.16
2023-05-16T05:56:42.105Z,15.12
2023-05-16T05:59:11.606Z,15.25
2023-05-16T06:01:40.327Z,15.24
2023-05-16T06:04:08.349Z,15.31
2023-05-16T06:06:36.573Z,15.31
2023-05-16T06:09:05.069Z,15.35
2023-05-16T06:11:33.158Z,15.29
2023-05-16T06:14:01.162Z,15.13
2023-05-16T06:16:30.589Z,15.34
2023-05-16T06:18:58.696Z,15.39
2023-05-16T06:21:26.710Z,15.49
2023-05-16T06:23:54.705Z,15.48
2023-05-16T06:26:22.824Z,15.50
2023-05-16T06:28:50.855Z,15.56
2023-05-16T06:31:18.934Z,15.59
2023-05-16T06:33:48.330Z,15.63
2023-05-16T06:36:16.310Z,15.61
2023-05-16T06:38:44.387Z,15.66
2023-05-16T06:41:12.325Z,15.68
2023-05-16T06:43:41.388Z,15.64
2023-05-16T06:46:09.603Z,15.61
2023-05-16T06:48:37.579Z,15.63
2023-05-16T06:51:07.235Z,15.57
2023-05-16T06:53:35.232Z,15.48
2023-05-16T06:56:03.369Z,15.31
2023-05-16T06:58:31.545Z,15.61
2023-05-16T07:00:59.632Z,15.59
2023-05-16T07:03:27.855Z,15.60
2023-05-16T07:05:55.916Z,15.59
2023-05-16T07:08:25.800Z,15.65
2023-05-16T07:10:53.870Z,15.66
2023-05-16T07:13:22.296Z,15.72
2023-05-16T07:15:50.259Z,15.76
2023-05-16T07:18:18.314Z,15.83
2023-05-16T07:20:46.822Z,15.86
2023-05-16T07:23:14.849Z,15.96
2023-05-16T07:25:44.464Z,16.10
2023-05-16T07:28:12.503Z,16.15
2023-05-16T07:30:40.578Z,16.18
2023-05-16T07:33:08.601Z,16.23
2023-05-16T07:35:36.625Z,16.29
2023-05-16T07:38:04.765Z,16.34
2023-05-16T07:40:32.833Z,16.51
2023-05-16T07:43:02.889Z,16.57
2023-05-16T07:45:31.137Z,16.14
2023-05-16T07:48:00.214Z,16.60
2023-05-16T07:50:28.259Z,16.62
2023-05-16T07:52:56.558Z,16.63
2023-05-16T07:55:24.721Z,16.74
2023-05-16T07:57:53.291Z,16.59
2023-05-16T08:00:23.498Z,16.74
2023-05-16T08:02:52.168Z,16.81
2023-05-16T08:05:20.514Z,16.84
2023-05-16T08:07:48.588Z,16.88
2023-05-16T08:10:16.751Z,17.02
2023-05-16T08:12:45.081Z,17.04
2023-05-16T08:15:13.249Z,17.05
2023-05-16T08:17:42.795Z,17.06
2023-05-16T08:20:12.231Z,17.06
2023-05-16T08:22:40.525Z,16.97
2023-05-16T08:25:09.855Z,17.14
2023-05-16T08:27:37.870Z,17.17
2023-05-16T08:30:08.037Z,17.17
2023-05-16T08:32:38.243Z,17.26
2023-05-16T08:35:08.997Z,17.25
2023-05-16T08:37:37.008Z,17.46
2023-05-16T08:40:08.443Z,17.19
2023-05-16T08:42:37.580Z,17.58
2023-05-16T08:45:06.835Z,17.64
2023-05-16T08:47:36.913Z,17.76
2023-05-16T08:50:05.706Z,17.74
2023-05-16T08:52:39.383Z,17.88
2023-05-16T08:55:12.099Z,18.11
2023-05-16T08:57:40.722Z,18.30
2023-05-16T09:00:13.124Z,18.46
2023-05-16T09:02:42.333Z,18.73
2023-05-16T09:05:13.422Z,18.80
2023-05-16T09:07:43.171Z,18.78
2023-05-16T09:10:12.293Z,18.87
2023-05-16T09:12:42.297Z,18.83
2023-05-16T09:15:11.829Z,18.72
2023-05-16T09:17:44.461Z,18.61
2023-05-16T09:20:15.104Z,18.70
2023-05-16T09:22:53.195Z,18.73
2023-05-16T09:25:30.183Z,18.75
2023-05-16T09:28:01.547Z,18.91
2023-05-16T09:30:31.884Z,18.82
2023-05-16T09:33:00.454Z,19.11
2023-05-16T09:38:01.050Z,18.99
2023-05-16T09:40:29.058Z,18.82
2023-05-16T09:43:06.952Z,18.58
2023-05-16T09:45:36.363Z,18.55
2023-05-16T09:48:07.387Z,18.62
2023-05-16T09:50:36.122Z,18.71
2023-05-16T09:53:06.051Z,18.74
2023-05-16T09:55:34.549Z,18.78
2023-05-16T09:58:02.493Z,18.86
2023-05-16T10:00:32.057Z,18.99
2023-05-16T10:03:04.776Z,18.99
2023-05-16T10:05:37.043Z,19.20
2023-05-16T10:08:07.556Z,19.69
2023-05-16T10:10:39.636Z,19.79
2023-05-16T10:13:09.457Z,19.85
2023-05-16T10:15:39.099Z,19.72
2023-05-16T10:18:12.254Z,19.98
2023-05-16T10:20:43.003Z,19.68
2023-05-16T10:23:18.793Z,19.54
2023-05-16T10:25:48.118Z,19.37
2023-05-16T10:28:17.220Z,19.47
2023-05-16T10:30:46.532Z,19.54
2023-05-16T10:33:15.918Z,19.66
2023-05-16T10:35:45.056Z,19.71
2023-05-16T10:38:16.334Z,19.48
2023-05-16T10:40:46.204Z,19.19
2023-05-16T10:43:24.795Z,19.10
2023-05-16T10:45:56.506Z,19.12
2023-05-16T10:48:50.432Z,19.32
2023-05-16T10:51:36.853Z,19.89
2023-05-16T10:54:11.365Z,19.80
2023-05-16T10:56:39.914Z,19.66
2023-05-16T10:59:24.271Z,19.67
2023-05-16T11:01:54.562Z,19.44
2023-05-16T11:04:22.789Z,19.46
2023-05-16T11:06:56.737Z,19.54
2023-05-16T11:09:28.309Z,19.44
2023-05-16T11:12:06.630Z,19.53
2023-05-16T11:14:42.578Z,19.48
2023-05-16T11:17:13.517Z,19.64
2023-05-16T11:19:44.188Z,19.63
2023-05-16T11:22:17.039Z,19.59
2023-05-16T11:24:58.445Z,19.55
2023-05-16T11:27:29.461Z,19.58
2023-05-16T11:30:03.263Z,19.62
2023-05-16T11:32:32.655Z,19.78
2023-05-16T11:35:00.808Z,19.64
2023-05-16T11:37:29.499Z,20.00
2023-05-16T11:40:02.632Z,20.01
2023-05-16T11:42:34.005Z,20.01
2023-05-16T11:45:09.242Z,20.07
2023-05-16T11:47:38.782Z,19.92
2023-05-16T11:50:08.029Z,19.80
2023-05-16T11:52:36.587Z,19.54
2023-05-16T11:55:11.224Z,19.95
2023-05-16T11:57:40.246Z,19.83
2023-05-16T12:00:16.977Z,20.01
2023-05-16T12:02:45.609Z,20.08
2023-05-16T12:05:14.680Z,19.96
2023-05-16T12:07:44.857Z,20.19
2023-05-16T12:10:16.958Z,20.41
2023-05-16T12:12:47.705Z,20.57
2023-05-16T12:15:16.442Z,20.55
2023-05-16T12:17:44.984Z,20.83
2023-05-16T12:20:14.667Z,21.01
2023-05-16T12:22:43.422Z,20.99
2023-05-16T12:25:27.928Z,21.13
2023-05-16T12:27:58.236Z,21.10
2023-05-16T12:30:27.880Z,20.98
2023-05-16T12:32:59.859Z,21.04
2023-05-16T12:35:32.288Z,20.77
2023-05-16T12:38:00.288Z,20.68
2023-05-16T12:40:31.507Z,20.57
2023-05-16T12:43:00.672Z,20.37
2023-05-16T12:45:29.097Z,19.92
2023-05-16T12:47:57.431Z,20.05
2023-05-16T12:50:29.286Z,19.81
2023-05-16T12:53:01.371Z,19.79
2023-05-16T12:55:31.013Z,19.50
2023-05-16T12:57:59.425Z,19.48
2023-05-16T13:00:28.060Z,19.38
2023-05-16T13:02:56.551Z,19.40
2023-05-16T13:05:24.604Z,19.37
2023-05-16T13:07:52.885Z,19.30
2023-05-16T13:10:21.301Z,19.22
2023-05-16T13:12:50.791Z,19.32
2023-05-16T13:15:19.276Z,19.36
2023-05-16T13:17:48.612Z,19.41
2023-05-16T13:20:17.524Z,19.48
2023-05-16T13:22:46.474Z,19.50
2023-05-16T13:25:14.564Z,19.54
2023-05-16T13:27:42.573Z,19.64
2023-05-16T13:30:12.667Z,19.72
2023-05-16T13:32:40.679Z,19.74
2023-05-16T13:35:09.823Z,19.77
2023-05-16T13:37:38.145Z,19.67
2023-05-16T13:40:10.468Z,19.69
2023-05-16T13:42:39.859Z,19.67
2023-05-16T13:45:09.073Z,19.65
2023-05-16T13:47:38.626Z,19.64
2023-05-16T13:50:10.304Z,19.63
2023-05-16T13:52:39.192Z,19.30
2023-05-16T13:55:08.635Z,19.55
2023-05-16T13:57:36.899Z,19.48
2023-05-16T14:00:35.364Z,19.57
2023-05-16T14:03:01.682Z,19.58
2023-05-16T14:05:29.755Z,19.43
2023-05-16T14:07:58.098Z,19.54
2023-05-16T14:10:26.692Z,19.49
2023-05-16T14:12:54.989Z,19.56
2023-05-16T14:15:22.982Z,19.62
2023-05-16T14:17:51.155Z,19.66
2023-05-16T14:20:20.745Z,19.72
2023-05-16T14:22:50.762Z,19.81
2023-05-16T14:25:18.867Z,19.94
2023-05-16T14:27:46.911Z,20.06
2023-05-16T14:30:15.242Z,20.07
2023-05-16T14:32:43.363Z,20.09
2023-05-16T14:35:11.797Z,20.06
2023-05-16T14:37:41.233Z,20.12
2023-05-16T14:40:10.936Z,20.02
2023-05-16T14:42:39.020Z,20.09
2023-05-16T14:45:08.005Z,20.00
2023-05-16T14:47:36.462Z,19.94
2023-05-16T14:50:04.961Z,19.79
2023-05-16T14:52:35.626Z,19.71
2023-05-16T14:55:06.217Z,19.39
2023-05-16T14:57:34.681Z,19.40
2023-05-16T15:00:02.671Z,19.32
2023-05-16T15:02:30.751Z,19.17
2023-05-16T15:04:59.023Z,19.01
2023-05-16T15:07:27.104Z,18.87
2023-05-16T15:09:55.753Z,18.57
2023-05-16T15:12:25.285Z,18.18
2023-05-16T15:14:53.209Z,17.81
2023-05-16T15:17:21.270Z,17.45
2023-05-16T15:19:50.535Z,17.28
2023-05-16T15:22:20.886Z,17.10
2023-05-16T15:24:49.036Z,16.89
2023-05-16T15:27:17.296Z,16.73
2023-05-16T15:29:49.673Z,16.71
2023-05-16T15:32:18.400Z,16.66
2023-05-16T15:34:46.593Z,16.63
2023-05-16T15:37:14.537Z,16.58
2023-05-16T15:39:42.663Z,16.56
2023-05-16T15:42:11.504Z,16.58
2023-05-16T15:44:40.027Z,16.44
2023-05-16T15:47:10.929Z,16.38
2023-05-16T15:49:39.370Z,16.34
2023-05-16T15:52:07.474Z,16.34
2023-05-16T15:54:35.778Z,16.53
2023-05-16T15:57:03.853Z,16.65
2023-05-16T15:59:32.132Z,16.58
2023-05-16T16:02:04.328Z,16.40
2023-05-16T16:04:34.197Z,16.30
2023-05-16T16:07:02.295Z,16.38
2023-05-16T16:09:30.501Z,16.37
2023-05-16T16:11:59.375Z,16.35
2023-05-16T16:14:27.544Z,16.41
2023-05-16T16:16:55.571Z,16.44
2023-05-16T16:19:23.774Z,16.49
2023-05-16T16:21:53.722Z,16.32
2023-05-16T16:24:21.745Z,15.98
2023-05-16T16:26:49.693Z,15.81
2023-05-16T16:29:17.863Z,15.79
2023-05-16T16:31:45.861Z,15.77
2023-05-16T16:34:13.842Z,15.70
2023-05-16T16:36:42.291Z,15.38
2023-05-16T16:39:12.016Z,15.16
2023-05-16T16:41:40.518Z,15.00
2023-05-16T16:44:08.642Z,14.97
2023-05-16T16:46:36.892Z,14.90
2023-05-16T16:49:05.465Z,14.84
2023-05-16T16:51:35.172Z,14.79
2023-05-16T16:54:03.258Z,14.77
2023-05-16T16:56:36.401Z,14.72
2023-05-16T16:59:04.458Z,14.75
2023-05-16T17:01:32.937Z,14.70
2023-05-16T17:04:02.163Z,14.69
2023-05-16T17:06:30.493Z,14.77
2023-05-16T17:09:02.509Z,14.79
2023-05-16T17:11:36.030Z,14.84
2023-05-16T17:14:06.344Z,14.71
2023-05-16T17:16:37.931Z,14.79
2023-05-16T17:19:06.227Z,14.80
2023-05-16T17:21:37.249Z,14.84
2023-05-16T17:24:07.000Z,14.85
2023-05-16T17:26:39.701Z,14.86
2023-05-16T17:29:10.488Z,14.80
2023-05-16T17:31:42.053Z,14.84
2023-05-16T17:34:11.427Z,14.93
2023-05-16T17:36:40.991Z,15.00
2023-05-16T17:39:10.642Z,14.96
2023-05-16T17:41:40.535Z,14.73
2023-05-16T17:44:09.459Z,14.72
2023-05-16T17:46:38.460Z,14.67
2023-05-16T17:49:07.541Z,14.88
2023-05-16T17:51:47.562Z,14.99
2023-05-16T17:54:16.120Z,15.08
2023-05-16T17:56:45.847Z,15.21
2023-05-16T17:59:15.146Z,15.33
2023-05-16T18:01:45.054Z,15.46
2023-05-16T18:04:14.567Z,15.55
2023-05-16T18:06:44.140Z,15.59
2023-05-16T18:09:15.081Z,15.65
2023-05-16T18:11:43.242Z,15.70
2023-05-16T18:14:15.586Z,15.69
2023-05-16T18:16:45.605Z,15.70
2023-05-16T18:19:13.785Z,15.82
2023-05-16T18:21:44.421Z,15.88
2023-05-16T18:24:13.533Z,15.89
2023-05-16T18:26:42.052Z,15.92
2023-05-16T18:29:10.970Z,15.98
2023-05-16T18:31:42.515Z,16.06
2023-05-16T18:34:12.070Z,16.16
2023-05-16T18:36:41.770Z,16.17
2023-05-16T18:39:10.798Z,16.23
2023-05-16T18:41:39.000Z,16.21
2023-05-16T18:44:07.282Z,16.30
2023-05-16T18:46:38.367Z,16.40
2023-05-16T18:49:08.375Z,16.45
2023-05-16T18:51:36.777Z,16.42
2023-05-16T18:54:05.800Z,16.59
2023-05-16T18:56:34.502Z,16.37
2023-05-16T18:59:03.078Z,16.74
2023-05-16T19:01:31.392Z,16.80
2023-05-16T19:03:59.605Z,16.84
2023-05-16T19:06:29.461Z,16.85
2023-05-16T19:08:58.053Z,16.88
2023-05-16T19:11:26.713Z,16.82
2023-05-16T19:13:55.085Z,16.84
2023-05-16T19:16:23.193Z,16.80
2023-05-16T19:18:51.981Z,16.75
2023-05-16T19:21:20.148Z,16.74
2023-05-16T19:23:50.121Z,16.78
2023-05-16T19:26:18.227Z,16.79
2023-05-16T19:28:46.381Z,16.81
2023-05-16T19:31:14.546Z,16.81
2023-05-16T19:33:42.729Z,16.81
2023-05-16T19:36:10.961Z,16.78
2023-05-16T19:38:39.268Z,16.44
2023-05-16T19:41:10.228Z,16.78
2023-05-16T19:43:38.791Z,16.63
2023-05-16T19:46:06.774Z,16.54
2023-05-16T19:48:37.137Z,16.64
2023-05-16T19:51:08.973Z,16.59
2023-05-16T19:53:37.524Z,16.55
2023-05-16T19:56:05.997Z,15.85
2023-05-16T19:58:35.525Z,16.57
2023-05-16T20:01:04.390Z,16.52
2023-05-16T20:03:32.713Z,16.54
2023-05-16T20:06:01.340Z,16.53
2023-05-16T20:08:33.095Z,16.55
2023-05-16T20:11:01.234Z,16.41
2023-05-16T20:13:30.544Z,16.76
2023-05-16T20:16:00.838Z,16.62
2023-05-16T20:18:31.931Z,16.72
2023-05-16T20:21:00.205Z,16.74
2023-05-16T20:23:30.077Z,16.73
2023-05-16T20:25:58.052Z,16.72
2023-05-16T20:28:26.050Z,16.76
2023-05-16T20:30:54.285Z,16.79
2023-05-16T20:33:23.811Z,16.82
2023-05-16T20:35:51.807Z,16.75
2023-05-16T20:38:19.733Z,16.81
2023-05-16T20:40:48.323Z,16.89
2023-05-16T20:43:16.357Z,16.93
2023-05-16T20:45:44.379Z,17.02
2023-05-16T20:48:14.203Z,16.84
2023-05-16T20:50:43.704Z,16.87
2023-05-16T20:53:11.681Z,16.89
2023-05-16T20:55:39.633Z,16.82
2023-05-16T20:58:07.642Z,16.77
2023-05-16T21:00:35.590Z,16.73
2023-05-16T21:03:03.822Z,16.71
2023-05-16T21:05:33.624Z,16.70
2023-05-16T21:08:03.120Z,16.49
2023-05-16T21:10:31.170Z,16.61
2023-05-16T21:12:59.269Z,16.63
2023-05-16T21:15:27.415Z,16.50
2023-05-16T21:17:55.781Z,16.55
2023-05-16T21:20:23.822Z,16.69
2023-05-16T21:22:51.821Z,16.65
2023-05-16T21:25:21.236Z,16.53
2023-05-16T21:27:49.238Z,16.61
2023-05-16T21:30:17.358Z,16.58
2023-05-16T21:32:45.383Z,16.58
2023-05-16T21:35:13.482Z,16.48
2023-05-16T21:37:41.492Z,16.49
2023-05-16T21:40:10.402Z,15.56
2023-05-16T21:42:39.793Z,16.41
2023-05-16T21:45:12.888Z,16.30
2023-05-16T21:47:41.018Z,16.30
2023-05-16T21:50:10.639Z,16.16
2023-05-16T21:52:39.980Z,16.02
2023-05-16T21:55:08.619Z,15.86
2023-05-16T21:57:36.581Z,15.98
2023-05-16T22:00:09.608Z,15.74
2023-05-16T22:02:38.249Z,16.02
2023-05-16T22:05:07.607Z,15.97
2023-05-16T22:07:35.836Z,15.93
2023-05-16T22:10:05.075Z,15.95
2023-05-16T22:12:33.101Z,15.93
2023-05-16T22:15:01.127Z,15.88
2023-05-16T22:17:30.693Z,16.00
2023-05-16T22:19:58.705Z,16.05
2023-05-16T22:22:26.670Z,16.13
2023-05-16T22:24:54.801Z,16.08
2023-05-16T22:27:22.801Z,16.21
2023-05-16T22:29:50.780Z,16.18
2023-05-16T22:32:18.850Z,16.10
2023-05-16T22:34:48.226Z,16.08
2023-05-16T22:37:16.317Z,15.89
2023-05-16T22:39:44.315Z,16.07
2023-05-16T22:42:12.854Z,16.02
2023-05-16T22:44:40.811Z,15.97
2023-05-16T22:47:08.801Z,15.91
2023-05-16T22:49:36.872Z,15.83
2023-05-16T22:52:06.836Z,15.84
2023-05-16T22:54:34.891Z,15.84
2023-05-16T22:57:02.845Z,15.83
2023-05-16T22:59:31.173Z,15.81
2023-05-16T23:01:59.223Z,15.70
2023-05-16T23:04:27.262Z,15.76
2023-05-16T23:06:55.200Z,15.72
2023-05-16T23:09:24.544Z,15.69
2023-05-16T23:11:52.574Z,15.68
2023-05-16T23:14:20.575Z,15.56
2023-05-16T23:16:48.687Z,15.42
2023-05-16T23:19:16.914Z,15.65
2023-05-16T23:21:45.068Z,15.38
2023-05-16T23:24:13.074Z,15.59
2023-05-16T23:26:42.391Z,15.45
2023-05-16T23:29:10.443Z,15.58
2023-05-16T23:31:38.551Z,15.59
2023-05-16T23:34:06.687Z,15.53
2023-05-16T23:36:34.669Z,15.57
2023-05-16T23:39:02.668Z,15.53
2023-05-16T23:41:31.159Z,15.47
2023-05-16T23:44:00.504Z,15.39
2023-05-16T23:46:28.543Z,15.35
2023-05-16T23:48:57.264Z,15.24
2023-05-16T23:51:25.431Z,15.29
2023-05-16T23:53:53.532Z,15.26
2023-05-16T23:56:21.502Z,15.23
2023-05-16T23:58:50.166Z,15.14
